createdAt,value
2019-04-16T00:02:58.355Z,6.61
2019-04-16T00:06:12.725Z,6.42
2019-04-16T00:09:29.123Z,6.19
2019-04-16T00:12:45.692Z,6.05
2019-04-16T00:15:50.805Z,5.85
2019-04-16T00:18:58.137Z,5.83
2019-04-16T00:22:19.905Z,5.56
2019-04-16T00:25:25.123Z,5.52
2019-04-16T00:28:31.318Z,5.33
2019-04-16T00:31:37.664Z,5.12
2019-04-16T00:34:44.789Z,5.03
2019-04-16T00:37:51.755Z,4.81
2019-04-16T00:41:00.766Z,4.69
2019-04-16T00:44:03.749Z,4.89
2019-04-16T00:47:08.928Z,4.66
2019-04-16T00:50:15.439Z,4.44
2019-04-16T00:53:20.611Z,4.36
2019-04-16T00:56:25.804Z,4.32
2019-04-16T00:59:30.889Z,4.29
2019-04-16T01:02:36.019Z,4.20
2019-04-16T01:05:41.170Z,4.22
2019-04-16T01:08:54.410Z,4.18
2019-04-16T01:11:53.343Z,4.03
2019-04-16T01:15:02.597Z,3.91
2019-04-16T01:18:09.027Z,3.89
2019-04-16T01:21:14.979Z,3.95
2019-04-16T01:24:21.146Z,3.82
2019-04-16T01:27:38.858Z,3.65
2019-04-16T01:31:01.095Z,3.58
2019-04-16T01:34:24.141Z,3.73
2019-04-16T01:37:57.712Z,3.59
2019-04-16T01:41:08.823Z,3.47
2019-04-16T01:44:14.056Z,3.23
2019-04-16T01:47:19.207Z,3.29
2019-04-16T01:50:24.404Z,3.39
2019-04-16T01:53:29.576Z,3.45
2019-04-16T01:56:34.669Z,3.28
2019-04-16T01:59:39.790Z,3.20
2019-04-16T02:02:46.382Z,3.11
2019-04-16T02:05:54.601Z,3.04
2019-04-16T02:09:01.750Z,3.03
2019-04-16T02:12:07.232Z,2.87
2019-04-16T02:15:12.408Z,2.89
2019-04-16T02:18:17.580Z,2.76
2019-04-16T02:21:23.749Z,2.58
2019-04-16T02:24:28.813Z,2.56
2019-04-16T02:27:34.028Z,2.48
2019-04-16T02:30:39.869Z,2.56
2019-04-16T02:33:45.150Z,2.57
2019-04-16T02:36:50.341Z,2.65
2019-04-16T02:39:57.976Z,2.59
2019-04-16T02:43:06.510Z,2.46
2019-04-16T02:46:09.921Z,2.50
2019-04-16T02:49:15.045Z,2.38
2019-04-16T02:52:39.113Z,2.31
2019-04-16T02:56:07.725Z,2.38
2019-04-16T02:59:16.043Z,2.26
2019-04-16T03:02:38.995Z,2.23
2019-04-16T03:05:47.071Z,2.26
2019-04-16T03:08:52.289Z,2.21
2019-04-16T03:11:57.467Z,2.32
2019-04-16T03:15:02.883Z,2.17
2019-04-16T03:18:08.327Z,2.28
2019-04-16T03:21:13.507Z,2.13
2019-04-16T03:24:18.763Z,2.11
2019-04-16T03:27:23.837Z,2.13
2019-04-16T03:30:28.955Z,2.07
2019-04-16T03:33:34.162Z,2.02
2019-04-16T03:36:39.305Z,2.00
2019-04-16T03:39:44.989Z,2.03
2019-04-16T03:43:10.581Z,2.12
2019-04-16T03:46:15.723Z,2.07
2019-04-16T03:49:20.861Z,2.06
2019-04-16T03:52:25.960Z,1.96
2019-04-16T03:55:31.249Z,1.70
2019-04-16T03:58:38.609Z,1.63
2019-04-16T04:01:45.827Z,1.51
2019-04-16T04:04:50.120Z,1.64
2019-04-16T04:07:55.707Z,1.70
2019-04-16T04:11:00.923Z,1.61
2019-04-16T04:14:06.040Z,1.69
2019-04-16T04:17:12.542Z,1.62
2019-04-16T04:20:19.150Z,1.58
2019-04-16T04:23:25.534Z,1.46
2019-04-16T04:26:31.487Z,1.47
2019-04-16T04:29:36.689Z,1.42
2019-04-16T04:32:41.865Z,1.44
2019-04-16T04:35:47.031Z,1.38
2019-04-16T04:38:52.150Z,1.46
2019-04-16T04:41:57.364Z,1.47
2019-04-16T04:45:08.400Z,1.57
2019-04-16T04:48:11.959Z,1.55
2019-04-16T04:51:17.439Z,1.57
2019-04-16T04:54:23.493Z,1.78
2019-04-16T04:57:31.161Z,2.33
2019-04-16T05:00:37.438Z,2.89
2019-04-16T05:04:05.210Z,3.75
2019-04-16T05:07:10.499Z,4.13
2019-04-16T05:10:15.770Z,4.73
2019-04-16T05:13:23.918Z,4.86
2019-04-16T05:16:27.934Z,5.47
2019-04-16T05:19:33.153Z,6.12
2019-04-16T05:22:38.257Z,5.59
2019-04-16T05:25:43.514Z,5.98
2019-04-16T05:28:48.720Z,6.06
2019-04-16T05:31:54.495Z,6.41
2019-04-16T05:35:00.865Z,6.53
2019-04-16T05:38:06.032Z,7.77
2019-04-16T05:41:13.504Z,7.25
2019-04-16T05:44:18.068Z,8.24
2019-04-16T05:47:23.255Z,7.22
2019-04-16T05:50:29.829Z,7.77
2019-04-16T05:53:37.373Z,8.58
2019-04-16T05:56:47.562Z,7.60
2019-04-16T05:59:52.787Z,8.46
2019-04-16T06:02:57.925Z,8.09
2019-04-16T06:06:03.021Z,7.60
2019-04-16T06:09:12.263Z,7.16
2019-04-16T06:12:16.686Z,7.43
2019-04-16T06:15:40.843Z,7.54
2019-04-16T06:18:55.293Z,7.27
2019-04-16T06:22:31.831Z,7.51
2019-04-16T06:25:47.531Z,7.76
2019-04-16T06:28:59.978Z,7.70
2019-04-16T06:32:35.517Z,7.56
2019-04-16T06:36:05.525Z,7.69
2019-04-16T06:39:15.741Z,8.13
2019-04-16T06:42:25.352Z,8.12
2019-04-16T06:45:41.418Z,8.19
2019-04-16T06:49:17.634Z,8.22
2019-04-16T06:52:59.185Z,7.96
2019-04-16T06:56:23.323Z,8.59
2019-04-16T06:59:34.419Z,8.85
2019-04-16T07:03:01.670Z,9.29
2019-04-16T07:06:21.147Z,9.59
2019-04-16T07:09:41.488Z,9.92
2019-04-16T07:12:39.303Z,10.34
2019-04-16T07:15:45.591Z,10.53
2019-04-16T07:18:50.850Z,10.66
2019-04-16T07:21:55.985Z,10.97
2019-04-16T07:25:04.255Z,11.13
2019-04-16T07:28:15.325Z,11.34
2019-04-16T07:31:33.556Z,11.41
2019-04-16T07:35:01.469Z,11.51
2019-04-16T07:38:35.443Z,11.20
2019-04-16T07:42:08.558Z,11.53
2019-04-16T07:45:26.909Z,12.39
2019-04-16T07:48:46.655Z,12.33
2019-04-16T07:52:13.804Z,12.30
2019-04-16T07:55:30.058Z,12.43
2019-04-16T07:58:35.236Z,12.54
2019-04-16T08:01:40.456Z,12.31
2019-04-16T08:04:45.643Z,12.30
2019-04-16T08:07:52.890Z,12.27
2019-04-16T08:10:58.316Z,12.49
2019-04-16T08:14:08.638Z,12.41
2019-04-16T08:17:10.419Z,13.06
2019-04-16T08:20:20.080Z,12.94
2019-04-16T08:23:43.737Z,13.26
2019-04-16T08:26:48.904Z,13.28
2019-04-16T08:29:54.152Z,13.35
2019-04-16T08:32:59.312Z,14.00
2019-04-16T08:36:04.475Z,13.55
2019-04-16T08:39:13.429Z,13.61
2019-04-16T08:42:18.576Z,13.73
2019-04-16T08:45:23.739Z,13.87
2019-04-16T08:48:28.975Z,13.83
2019-04-16T08:51:37.047Z,13.45
2019-04-16T08:54:41.113Z,14.29
2019-04-16T08:57:47.024Z,14.08
2019-04-16T09:00:52.537Z,14.67
2019-04-16T09:04:02.647Z,14.42
2019-04-16T09:07:12.080Z,14.98
2019-04-16T09:10:19.098Z,14.87
2019-04-16T09:13:25.652Z,15.21
2019-04-16T09:16:32.578Z,15.17
2019-04-16T09:19:39.241Z,15.21
2019-04-16T09:22:49.098Z,15.19
2019-04-16T09:26:12.397Z,15.18
2019-04-16T09:29:23.940Z,15.34
2019-04-16T09:32:47.917Z,15.31
2019-04-16T09:36:18.758Z,15.19
2019-04-16T09:39:39.010Z,15.65
2019-04-16T09:42:44.173Z,15.39
2019-04-16T09:45:49.386Z,16.16
2019-04-16T09:48:54.594Z,16.43
2019-04-16T09:51:59.838Z,16.33
2019-04-16T09:55:05.132Z,16.51
2019-04-16T09:58:17.016Z,16.46
2019-04-16T10:01:24.051Z,16.63
2019-04-16T10:04:29.203Z,16.54
2019-04-16T10:07:34.354Z,15.75
2019-04-16T10:10:39.476Z,16.28
2019-04-16T10:13:44.651Z,16.64
2019-04-16T10:16:49.807Z,16.55
2019-04-16T10:19:55.030Z,17.25
2019-04-16T10:23:01.824Z,16.93
2019-04-16T10:26:06.999Z,17.38
2019-04-16T10:29:15.535Z,17.45
2019-04-16T10:32:20.749Z,18.13
2019-04-16T10:35:26.481Z,17.69
2019-04-16T10:38:36.848Z,17.59
2019-04-16T10:41:56.399Z,17.76
2019-04-16T10:45:09.367Z,17.48
2019-04-16T10:48:33.548Z,17.71
2019-04-16T10:52:06.553Z,17.84
2019-04-16T10:55:27.300Z,18.00
2019-04-16T10:58:55.947Z,17.60
2019-04-16T11:02:38.592Z,17.87
2019-04-16T11:05:56.773Z,17.99
2019-04-16T11:09:00.681Z,17.82
2019-04-16T11:12:07.779Z,17.90
2019-04-16T11:15:16.038Z,18.47
2019-04-16T11:18:21.257Z,18.34
2019-04-16T11:21:27.535Z,18.62
2019-04-16T11:24:32.733Z,18.80
2019-04-16T11:27:37.851Z,18.37
2019-04-16T11:30:48.702Z,18.30
2019-04-16T11:33:53.547Z,18.38
2019-04-16T11:36:58.862Z,18.17
2019-04-16T11:40:05.274Z,18.21
2019-04-16T11:43:10.466Z,18.47
2019-04-16T11:46:15.819Z,18.85
2019-04-16T11:49:21.836Z,19.25
2019-04-16T11:52:27.135Z,19.38
2019-04-16T11:55:32.386Z,18.77
2019-04-16T12:04:02.675Z,18.56
2019-04-16T12:07:31.580Z,18.73
2019-04-16T12:10:41.207Z,19.05
2019-04-16T12:14:09.962Z,19.06
2019-04-16T12:17:19.429Z,19.10
2019-04-16T12:20:44.632Z,18.52
2019-04-16T12:24:18.428Z,19.26
2019-04-16T12:27:43.510Z,19.65
2019-04-16T12:31:01.933Z,19.16
2019-04-16T12:34:13.942Z,19.39
2019-04-16T12:37:37.651Z,19.17
2019-04-16T12:41:01.771Z,19.09
2019-04-16T12:44:26.075Z,19.62
2019-04-16T12:47:35.517Z,20.07
2019-04-16T12:51:02.496Z,19.95
2019-04-16T12:54:26.260Z,19.37
2019-04-16T12:57:49.516Z,19.36
2019-04-16T13:01:03.074Z,19.37
2019-04-16T13:04:14.211Z,19.95
2019-04-16T13:07:34.166Z,20.13
2019-04-16T13:11:13.216Z,20.40
2019-04-16T13:14:37.817Z,20.62
2019-04-16T13:18:01.009Z,20.44
2019-04-16T13:21:34.591Z,20.32
2019-04-16T13:24:43.762Z,20.25
2019-04-16T13:27:50.889Z,20.27
2019-04-16T13:30:56.155Z,19.89
2019-04-16T13:34:01.286Z,20.08
2019-04-16T13:37:07.559Z,20.03
2019-04-16T13:40:14.946Z,20.00
2019-04-16T13:43:23.185Z,19.56
2019-04-16T13:46:29.481Z,19.47
2019-04-16T13:49:46.807Z,20.03
2019-04-16T13:52:56.050Z,19.92
2019-04-16T13:56:26.517Z,20.13
2019-04-16T13:59:50.715Z,19.99
2019-04-16T14:02:59.146Z,20.22
2019-04-16T14:06:09.350Z,20.54
2019-04-16T14:09:11.206Z,20.15
2019-04-16T14:12:16.650Z,19.65
2019-04-16T14:15:31.627Z,19.70
2019-04-16T14:18:32.567Z,20.00
2019-04-16T14:21:37.240Z,20.41
2019-04-16T14:24:42.433Z,20.70
2019-04-16T14:27:47.589Z,20.56
2019-04-16T14:30:52.741Z,20.66
2019-04-16T14:34:03.043Z,20.51
2019-04-16T14:37:08.194Z,19.88
2019-04-16T14:40:17.280Z,20.31
2019-04-16T14:43:29.370Z,20.06
2019-04-16T14:46:33.999Z,20.38
2019-04-16T14:49:39.154Z,20.73
2019-04-16T14:52:44.514Z,21.02
2019-04-16T14:56:00.525Z,20.62
2019-04-16T14:59:30.399Z,20.25
2019-04-16T15:02:42.028Z,20.54
2019-04-16T15:06:17.085Z,20.50
2019-04-16T15:09:32.863Z,20.97
2019-04-16T15:12:55.542Z,20.39
2019-04-16T15:16:22.166Z,20.65
2019-04-16T15:19:28.859Z,20.49
2019-04-16T15:22:45.926Z,20.11
2019-04-16T15:26:09.185Z,20.09
2019-04-16T15:29:20.869Z,20.47
2019-04-16T15:32:46.166Z,20.25
2019-04-16T15:36:01.972Z,20.19
2019-04-16T15:39:14.378Z,20.14
2019-04-16T15:42:48.980Z,19.98
2019-04-16T15:46:26.518Z,19.73
2019-04-16T15:49:40.054Z,20.08
2019-04-16T15:52:51.868Z,20.18
2019-04-16T15:56:28.066Z,20.21
2019-04-16T15:59:56.185Z,20.29
2019-04-16T16:03:19.370Z,19.93
2019-04-16T16:06:25.962Z,20.08
2019-04-16T16:09:50.107Z,19.95
2019-04-16T16:12:55.454Z,19.78
2019-04-16T16:16:00.587Z,19.98
2019-04-16T16:19:10.950Z,19.96
2019-04-16T16:22:12.688Z,19.87
2019-04-16T16:25:18.149Z,19.74
2019-04-16T16:28:23.401Z,19.31
2019-04-16T16:31:33.447Z,19.27
2019-04-16T16:34:35.511Z,19.26
2019-04-16T16:37:40.677Z,19.10
2019-04-16T16:40:49.459Z,19.11
2019-04-16T16:43:52.796Z,18.81
2019-04-16T16:47:06.958Z,18.79
2019-04-16T16:50:17.341Z,18.66
2019-04-16T16:53:31.368Z,18.55
2019-04-16T16:56:47.145Z,18.47
2019-04-16T17:00:29.584Z,18.24
2019-04-16T17:04:11.918Z,18.22
2019-04-16T17:07:18.463Z,18.09
2019-04-16T17:10:23.589Z,17.85
2019-04-16T17:13:28.781Z,17.51
2019-04-16T17:16:33.967Z,17.47
2019-04-16T17:19:39.134Z,17.31
2019-04-16T17:22:44.309Z,16.98
2019-04-16T17:25:51.217Z,16.80
2019-04-16T17:28:56.434Z,16.74
2019-04-16T17:32:01.562Z,16.49
2019-04-16T17:35:07.877Z,16.44
2019-04-16T17:38:13.767Z,16.27
2019-04-16T17:41:25.811Z,16.08
2019-04-16T17:44:49.944Z,16.00
2019-04-16T17:48:09.872Z,15.96
2019-04-16T17:51:34.039Z,15.68
2019-04-16T17:55:02.001Z,15.48
2019-04-16T17:58:10.773Z,15.34
2019-04-16T18:01:33.203Z,15.55
2019-04-16T18:04:56.461Z,15.58
2019-04-16T18:08:20.794Z,15.45
2019-04-16T18:11:45.443Z,15.29
2019-04-16T18:15:28.078Z,15.27
2019-04-16T18:18:49.882Z,15.19
2019-04-16T18:22:17.295Z,15.21
2019-04-16T18:25:54.919Z,15.06
2019-04-16T18:29:04.470Z,14.96
2019-04-16T18:32:33.716Z,14.76
2019-04-16T18:35:44.615Z,14.69
2019-04-16T18:39:11.885Z,14.67
2019-04-16T18:42:35.681Z,14.48
2019-04-16T18:45:59.861Z,14.36
2019-04-16T18:49:10.847Z,14.28
2019-04-16T18:52:16.147Z,14.19
2019-04-16T18:55:21.457Z,14.12
2019-04-16T18:58:26.672Z,14.20
2019-04-16T19:01:33.405Z,14.10
2019-04-16T19:04:38.691Z,13.94
2019-04-16T19:07:43.970Z,13.90
2019-04-16T19:10:50.370Z,13.88
2019-04-16T19:13:55.677Z,13.84
2019-04-16T19:17:00.855Z,13.82
2019-04-16T19:20:06.118Z,13.82
2019-04-16T19:23:11.371Z,13.90
2019-04-16T19:26:16.661Z,13.77
2019-04-16T19:29:21.830Z,13.72
2019-04-16T19:32:27.784Z,13.67
2019-04-16T19:35:33.955Z,13.53
2019-04-16T19:38:40.502Z,13.56
2019-04-16T19:41:45.892Z,13.48
2019-04-16T19:44:51.084Z,13.59
2019-04-16T19:48:00.290Z,13.46
2019-04-16T19:51:03.060Z,13.32
2019-04-16T19:54:08.226Z,13.27
2019-04-16T19:57:15.587Z,13.14
2019-04-16T20:00:22.944Z,13.01
2019-04-16T20:03:30.462Z,12.95
2019-04-16T20:06:34.494Z,12.94
2019-04-16T20:09:39.823Z,12.94
2019-04-16T20:12:45.055Z,12.89
2019-04-16T20:15:51.430Z,12.99
2019-04-16T20:18:56.644Z,12.96
2019-04-16T20:22:01.926Z,12.84
2019-04-16T20:25:07.306Z,12.76
2019-04-16T20:28:15.398Z,12.70
2019-04-16T20:31:19.468Z,12.84
2019-04-16T20:34:24.830Z,12.86
2019-04-16T20:37:29.973Z,13.00
2019-04-16T20:40:35.486Z,12.86
2019-04-16T20:43:40.811Z,12.77
2019-04-16T20:46:45.986Z,12.74
2019-04-16T20:49:51.316Z,12.80
2019-04-16T20:52:56.637Z,12.71
2019-04-16T20:56:01.945Z,12.79
2019-04-16T20:59:08.187Z,12.79
2019-04-16T21:02:13.446Z,12.79
2019-04-16T21:05:22.393Z,12.62
2019-04-16T21:08:25.686Z,12.55
2019-04-16T21:11:31.794Z,12.44
2019-04-16T21:14:36.981Z,12.44
2019-04-16T21:17:42.190Z,12.48
2019-04-16T21:20:50.836Z,12.57
2019-04-16T21:23:54.970Z,12.50
2019-04-16T21:27:00.286Z,12.52
2019-04-16T21:30:12.312Z,12.40
2019-04-16T21:33:21.256Z,12.43
2019-04-16T21:36:39.385Z,12.41
2019-04-16T21:39:54.068Z,12.34
2019-04-16T21:42:59.323Z,12.16
2019-04-16T21:46:04.530Z,12.06
2019-04-16T21:49:09.674Z,12.01
2019-04-16T21:52:14.807Z,11.97
2019-04-16T21:55:19.987Z,12.29
2019-04-16T21:58:25.310Z,12.36
2019-04-16T22:01:41.359Z,12.65
2019-04-16T22:04:46.568Z,12.92
2019-04-16T22:07:53.692Z,12.76
2019-04-16T22:10:58.863Z,12.62
2019-04-16T22:14:04.732Z,12.68
2019-04-16T22:17:10.018Z,12.88
2019-04-16T22:20:15.128Z,13.01
2019-04-16T22:23:20.326Z,12.94
2019-04-16T22:26:27.573Z,13.21
2019-04-16T22:29:32.834Z,13.01
2019-04-16T22:32:37.937Z,12.87
2019-04-16T22:35:43.068Z,13.05
2019-04-16T22:38:52.064Z,12.78
2019-04-16T22:42:06.371Z,12.59
2019-04-16T22:45:22.656Z,12.50
2019-04-16T22:48:27.881Z,12.60
2019-04-16T22:51:33.173Z,12.72
2019-04-16T22:54:38.377Z,12.32
2019-04-16T22:57:43.626Z,12.11
2019-04-16T23:00:48.824Z,11.87
2019-04-16T23:03:54.547Z,11.73
2019-04-16T23:06:59.701Z,11.61
2019-04-16T23:10:05.003Z,11.53
2019-04-16T23:13:10.190Z,11.45
2019-04-16T23:16:15.561Z,11.70
2019-04-16T23:19:21.299Z,11.98
2019-04-16T23:22:26.640Z,12.08
2019-04-16T23:25:31.732Z,12.06
2019-04-16T23:28:39.710Z,11.99
2019-04-16T23:31:43.750Z,11.80
2019-04-16T23:34:48.928Z,11.73
2019-04-16T23:37:58.062Z,11.77
2019-04-16T23:41:01.004Z,11.83
2019-04-16T23:44:31.264Z,11.85
2019-04-16T23:48:01.551Z,12.02
2019-04-16T23:51:10.685Z,12.04
2019-04-16T23:54:23.290Z,11.85
2019-04-16T23:57:36.871Z,11.98
